createdAt,value
2022-09-10T00:01:28.276Z,5.68
2022-09-10T00:03:56.030Z,8.30
2022-09-10T00:06:27.961Z,10.75
2022-09-10T00:11:31.790Z,9.10
2022-09-10T00:14:00.835Z,3.85
2022-09-10T00:16:28.743Z,6.60
2022-09-10T00:18:57.972Z,8.15
2022-09-10T00:21:25.289Z,9.98
2022-09-10T00:23:52.383Z,9.00
2022-09-10T00:26:25.305Z,5.53
2022-09-10T00:28:55.147Z,7.80
2022-09-10T00:31:23.419Z,10.35
2022-09-10T00:33:52.721Z,8.43
2022-09-10T00:36:21.826Z,10.30
2022-09-10T00:38:50.547Z,7.57
2022-09-10T00:41:19.338Z,5.97
2022-09-10T00:43:50.126Z,12.90
2022-09-10T00:46:43.507Z,7.03
2022-09-10T00:49:19.091Z,7.15
2022-09-10T00:51:47.921Z,11.05
2022-09-10T00:54:17.776Z,9.73
2022-09-10T00:56:45.494Z,8.18
2022-09-10T00:59:16.750Z,10.63
2022-09-10T01:01:43.630Z,9.25
2022-09-10T01:04:11.034Z,12.60
2022-09-10T01:06:40.442Z,8.23
2022-09-10T01:09:08.771Z,5.15
2022-09-10T01:12:13.065Z,10.50
2022-09-10T01:15:00.910Z,9.23
2022-09-10T01:17:54.248Z,9.52
2022-09-10T01:20:24.904Z,7.82
2022-09-10T01:23:06.920Z,6.75
2022-09-10T01:26:10.898Z,13.32
2022-09-10T01:28:52.365Z,8.27
2022-09-10T01:31:39.709Z,6.40
2022-09-10T01:34:41.331Z,6.97
2022-09-10T01:37:21.513Z,8.43
2022-09-10T01:39:51.095Z,9.25
2022-09-10T01:42:18.594Z,9.73
2022-09-10T01:44:50.502Z,8.10
2022-09-10T01:48:04.015Z,6.00
2022-09-10T01:51:01.164Z,11.18
2022-09-10T01:53:51.010Z,13.15
2022-09-10T01:56:45.719Z,10.48
2022-09-10T01:59:34.379Z,11.27
2022-09-10T02:02:10.429Z,10.52
2022-09-10T02:04:38.033Z,7.03
2022-09-10T02:07:07.133Z,6.28
2022-09-10T02:09:34.428Z,9.00
2022-09-10T02:12:02.286Z,9.50
2022-09-10T02:14:55.645Z,10.57
2022-09-10T02:17:55.930Z,12.30
2022-09-10T02:20:23.616Z,7.47
2022-09-10T02:22:58.546Z,8.70
2022-09-10T02:25:27.586Z,8.57
2022-09-10T02:27:57.577Z,11.90
2022-09-10T02:30:24.857Z,14.35
2022-09-10T02:32:52.308Z,7.13
2022-09-10T02:35:20.953Z,8.30
2022-09-10T02:37:50.620Z,8.65
2022-09-10T02:40:21.088Z,13.18
2022-09-10T02:42:48.268Z,17.92
2022-09-10T02:45:21.180Z,13.60
2022-09-10T02:47:49.003Z,11.10
2022-09-10T02:50:17.418Z,10.77
2022-09-10T02:52:46.347Z,10.10
2022-09-10T02:55:14.376Z,7.40
2022-09-10T02:57:43.679Z,9.68
2022-09-10T03:00:11.539Z,6.35
2022-09-10T03:02:38.845Z,7.10
2022-09-10T03:05:07.765Z,12.70
2022-09-10T03:07:35.012Z,8.15
2022-09-10T03:10:01.956Z,7.65
2022-09-10T03:12:29.104Z,7.70
2022-09-10T03:14:59.061Z,9.05
2022-09-10T03:17:26.555Z,11.15
2022-09-10T03:19:53.806Z,11.55
2022-09-10T03:22:21.921Z,11.10
2022-09-10T03:24:50.255Z,11.60
2022-09-10T03:27:18.137Z,7.03
2022-09-10T03:29:45.281Z,9.88
2022-09-10T03:32:14.261Z,9.98
2022-09-10T03:34:41.240Z,12.52
2022-09-10T03:37:08.376Z,12.02
2022-09-10T03:39:36.269Z,8.50
2022-09-10T03:42:05.404Z,9.73
2022-09-10T03:44:33.706Z,8.88
2022-09-10T03:47:01.702Z,8.10
2022-09-10T03:49:29.067Z,9.40
2022-09-10T03:51:56.299Z,9.90
2022-09-10T03:54:24.739Z,7.00
2022-09-10T03:56:52.040Z,8.75
2022-09-10T03:59:19.433Z,8.68
2022-09-10T04:01:47.281Z,8.77
2022-09-10T04:04:15.097Z,8.38
2022-09-10T04:06:43.041Z,8.82
2022-09-10T04:09:11.535Z,6.40
2022-09-10T04:11:38.640Z,6.10
2022-09-10T04:14:07.888Z,8.93
2022-09-10T04:16:37.788Z,10.90
2022-09-10T04:19:06.399Z,16.42
2022-09-10T04:21:35.399Z,10.20
2022-09-10T04:24:03.141Z,8.80
2022-09-10T04:26:30.428Z,11.32
2022-09-10T04:28:57.299Z,13.98
2022-09-10T04:31:24.339Z,10.60
2022-09-10T04:33:55.435Z,7.07
2022-09-10T04:36:25.845Z,13.38
2022-09-10T04:38:53.206Z,9.88
2022-09-10T04:41:20.607Z,9.25
2022-09-10T04:43:48.490Z,12.98
2022-09-10T04:46:16.051Z,11.57
2022-09-10T04:48:43.421Z,6.65
2022-09-10T04:51:16.503Z,8.98
2022-09-10T04:53:46.014Z,11.55
2022-09-10T04:56:13.716Z,10.73
2022-09-10T04:58:42.049Z,10.25
2022-09-10T05:01:09.986Z,8.50
2022-09-10T05:03:37.721Z,10.52
2022-09-10T05:06:06.602Z,15.30
2022-09-10T05:08:34.885Z,11.20
2022-09-10T05:11:02.892Z,11.98
2022-09-10T05:13:31.732Z,10.57
2022-09-10T05:16:00.318Z,9.15
2022-09-10T05:18:27.794Z,14.13
2022-09-10T05:20:56.742Z,15.50
2022-09-10T05:23:24.412Z,11.30
2022-09-10T05:25:54.049Z,15.50
2022-09-10T05:28:22.680Z,7.65
2022-09-10T05:30:51.891Z,10.20
2022-09-10T05:33:22.372Z,9.88
2022-09-10T05:35:51.813Z,9.05
2022-09-10T05:38:19.878Z,12.55
2022-09-10T05:40:48.132Z,9.15
2022-09-10T05:43:15.113Z,10.88
2022-09-10T05:45:43.737Z,10.95
2022-09-10T05:48:11.158Z,10.68
2022-09-10T05:50:38.612Z,7.25
2022-09-10T05:53:05.950Z,11.18
2022-09-10T05:55:33.341Z,11.60
2022-09-10T05:58:01.194Z,11.73
2022-09-10T06:00:28.750Z,9.23
2022-09-10T06:03:00.246Z,11.85
2022-09-10T06:05:35.460Z,11.10
2022-09-10T06:08:06.640Z,12.05
2022-09-10T06:10:37.565Z,11.52
2022-09-10T06:13:04.578Z,13.68
2022-09-10T06:15:33.226Z,11.30
2022-09-10T06:18:01.834Z,10.52
2022-09-10T06:20:29.356Z,9.98
2022-09-10T06:22:56.741Z,9.40
2022-09-10T06:25:24.257Z,21.17
2022-09-10T06:27:51.707Z,14.13
2022-09-10T06:30:20.795Z,14.05
2022-09-10T06:32:48.543Z,13.35
2022-09-10T06:35:16.001Z,15.35
2022-09-10T06:37:44.255Z,13.10
2022-09-10T06:40:13.415Z,16.15
2022-09-10T06:42:42.433Z,15.65
2022-09-10T06:45:13.154Z,15.68
2022-09-10T06:48:36.992Z,18.05
2022-09-10T06:50:57.521Z,15.07
2022-09-10T06:53:30.369Z,16.67
2022-09-10T06:56:00.393Z,15.00
2022-09-10T06:58:32.308Z,17.88
2022-09-10T07:00:59.490Z,15.13
2022-09-10T07:03:26.824Z,18.40
2022-09-10T07:05:55.863Z,13.98
2022-09-10T07:08:27.372Z,15.45
2022-09-10T07:11:04.811Z,14.55
2022-09-10T07:13:32.648Z,17.17
2022-09-10T07:16:01.219Z,17.48
2022-09-10T07:18:29.845Z,16.45
2022-09-10T07:21:16.481Z,17.40
2022-09-10T07:23:48.504Z,17.85
2022-09-10T07:26:19.696Z,16.90
2022-09-10T07:28:52.609Z,21.20
2022-09-10T07:31:29.855Z,19.10
2022-09-10T07:34:03.868Z,17.33
2022-09-10T07:36:31.552Z,16.60
2022-09-10T07:39:04.146Z,15.85
2022-09-10T07:41:36.225Z,19.63
2022-09-10T07:44:07.131Z,21.85
2022-09-10T07:49:09.644Z,20.20
2022-09-10T07:51:38.444Z,16.88
2022-09-10T07:54:06.842Z,23.92
2022-09-10T07:56:38.358Z,19.42
2022-09-10T07:59:08.577Z,21.70
2022-09-10T08:01:45.780Z,16.42
2022-09-10T08:04:15.525Z,16.48
2022-09-10T08:06:42.872Z,17.38
2022-09-10T08:09:09.960Z,21.08
2022-09-10T08:11:42.815Z,21.15
2022-09-10T08:14:13.504Z,19.38
2022-09-10T08:16:44.443Z,20.98
2022-09-10T08:19:18.182Z,17.45
2022-09-10T08:21:47.596Z,21.92
2022-09-10T08:24:19.733Z,19.55
2022-09-10T08:26:50.048Z,16.55
2022-09-10T08:29:18.365Z,19.17
2022-09-10T08:31:47.697Z,24.08
2022-09-10T08:34:22.545Z,21.45
2022-09-10T08:36:57.455Z,21.33
2022-09-10T08:39:24.822Z,19.42
2022-09-10T08:42:05.580Z,22.85
2022-09-10T08:44:49.916Z,20.85
2022-09-10T08:47:30.306Z,21.00
2022-09-10T08:50:13.203Z,23.88
2022-09-10T08:52:49.431Z,27.23
2022-09-10T08:55:31.928Z,27.45
2022-09-10T08:58:15.844Z,23.92
2022-09-10T09:00:46.606Z,21.35
2022-09-10T09:03:42.803Z,21.02
2022-09-10T09:06:30.256Z,27.65
2022-09-10T09:09:00.947Z,21.30
2022-09-10T09:11:46.081Z,22.45
2022-09-10T09:14:25.049Z,26.15
2022-09-10T09:17:14.844Z,25.23
2022-09-10T09:19:55.631Z,26.48
2022-09-10T09:22:42.111Z,23.98
2022-09-10T09:25:25.187Z,25.27
2022-09-10T09:27:56.508Z,27.00
2022-09-10T09:30:38.375Z,28.65
2022-09-10T09:33:16.562Z,25.95
2022-09-10T09:36:03.314Z,20.50
2022-09-10T09:38:45.779Z,25.45
2022-09-10T09:41:25.875Z,25.02
2022-09-10T09:43:58.844Z,19.13
2022-09-10T09:46:27.119Z,27.00
2022-09-10T09:49:01.212Z,27.95
2022-09-10T09:51:35.651Z,28.65
2022-09-10T09:57:01.712Z,24.15
2022-09-10T09:59:31.679Z,26.38
2022-09-10T10:02:26.322Z,23.65
2022-09-10T10:05:07.288Z,27.20
2022-09-10T10:07:36.442Z,24.33
2022-09-10T10:10:07.506Z,26.63
2022-09-10T10:12:37.503Z,25.95
2022-09-10T10:15:04.922Z,20.00
2022-09-10T10:17:37.772Z,18.90
2022-09-10T10:20:12.131Z,20.35
2022-09-10T10:22:48.794Z,19.13
2022-09-10T10:25:43.115Z,20.27
2022-09-10T10:28:24.294Z,15.38
2022-09-10T10:30:56.050Z,17.77
2022-09-10T10:33:28.745Z,15.48
2022-09-10T10:35:59.867Z,20.55
2022-09-10T10:38:47.181Z,16.92
2022-09-10T10:41:33.306Z,17.83
2022-09-10T10:44:35.196Z,15.27
2022-09-10T10:47:28.598Z,18.17
2022-09-10T10:50:11.546Z,18.40
2022-09-10T10:52:47.135Z,15.50
2022-09-10T10:55:27.918Z,17.70
2022-09-10T10:58:26.413Z,15.45
2022-09-10T11:00:59.151Z,15.48
2022-09-10T11:03:51.432Z,14.07
2022-09-10T11:06:24.674Z,18.90
2022-09-10T11:09:13.958Z,16.63
2022-09-10T11:11:53.108Z,22.20
2022-09-10T11:14:29.189Z,21.50
2022-09-10T11:17:06.033Z,22.33
2022-09-10T11:19:37.330Z,25.00
2022-09-10T11:22:24.409Z,20.30
2022-09-10T11:25:00.623Z,17.77
2022-09-10T11:27:35.808Z,13.77
2022-09-10T11:30:17.421Z,17.45
2022-09-10T11:33:11.392Z,20.98
2022-09-10T11:35:44.590Z,16.77
2022-09-10T11:38:22.484Z,22.67
2022-09-10T11:41:11.321Z,20.55
2022-09-10T11:43:56.227Z,20.33
2022-09-10T11:46:35.818Z,19.55
2022-09-10T11:49:37.150Z,14.82
2022-09-10T11:52:04.330Z,12.88
2022-09-10T11:54:35.906Z,13.38
2022-09-10T11:57:08.764Z,17.55
2022-09-10T11:59:54.181Z,17.45
2022-09-10T12:02:27.133Z,16.63
2022-09-10T12:05:02.862Z,13.32
2022-09-10T12:07:53.808Z,17.52
2022-09-10T12:10:31.594Z,15.18
2022-09-10T12:12:59.295Z,16.42
2022-09-10T12:15:34.533Z,17.40
2022-09-10T12:18:13.631Z,15.95
2022-09-10T12:21:08.761Z,18.02
2022-09-10T12:23:42.396Z,21.50
2022-09-10T12:26:18.042Z,27.75
2022-09-10T12:28:53.741Z,22.60
2022-09-10T12:31:22.615Z,23.75
2022-09-10T12:33:51.221Z,16.33
2022-09-10T12:36:27.531Z,27.67
2022-09-10T12:39:28.684Z,20.13
2022-09-10T12:42:23.601Z,23.35
2022-09-10T12:44:50.608Z,22.85
2022-09-10T12:47:17.458Z,23.50
2022-09-10T12:50:06.892Z,19.58
2022-09-10T12:52:51.844Z,15.38
2022-09-10T12:55:43.627Z,22.15
2022-09-10T12:58:23.329Z,20.52
2022-09-10T13:00:55.990Z,22.67
2022-09-10T13:03:27.103Z,21.08
2022-09-10T13:06:00.262Z,19.70
2022-09-10T13:08:33.262Z,19.48
2022-09-10T13:11:01.624Z,23.23
2022-09-10T13:13:42.246Z,21.55
2022-09-10T13:16:28.021Z,23.50
2022-09-10T13:19:15.244Z,18.83
2022-09-10T13:21:44.833Z,17.98
2022-09-10T13:24:36.266Z,18.45
2022-09-10T13:27:17.968Z,15.87
2022-09-10T13:29:55.872Z,21.50
2022-09-10T13:32:31.486Z,15.63
2022-09-10T13:35:19.586Z,16.25
2022-09-10T13:38:05.243Z,18.55
2022-09-10T13:40:40.660Z,15.45
2022-09-10T13:43:23.466Z,16.98
2022-09-10T13:45:55.357Z,15.40
2022-09-10T13:48:37.790Z,16.02
2022-09-10T13:53:51.721Z,17.30
2022-09-10T13:56:30.855Z,20.25
2022-09-10T13:59:01.066Z,16.98
2022-09-10T14:01:52.418Z,21.17
2022-09-10T14:04:35.755Z,15.20
2022-09-10T14:07:14.104Z,19.42
2022-09-10T14:09:46.778Z,13.75
2022-09-10T14:12:16.242Z,13.95
2022-09-10T14:14:47.832Z,13.10
2022-09-10T14:17:21.578Z,15.95
2022-09-10T14:19:58.090Z,18.92
2022-09-10T14:22:26.528Z,14.40
2022-09-10T14:24:59.860Z,12.90
2022-09-10T14:27:31.171Z,10.68
2022-09-10T14:30:18.388Z,7.83
2022-09-10T14:32:46.419Z,8.50
2022-09-10T14:35:43.054Z,7.93
2022-09-10T14:38:26.956Z,9.55
2022-09-10T14:41:04.372Z,11.10
2022-09-10T14:43:39.152Z,8.90
2022-09-10T14:46:10.575Z,12.10
2022-09-10T14:49:01.465Z,9.07
2022-09-10T14:51:28.435Z,11.93
2022-09-10T14:53:58.370Z,13.38
2022-09-10T14:56:33.557Z,9.05
2022-09-10T14:59:13.712Z,11.70
2022-09-10T15:01:46.533Z,10.65
2022-09-10T15:04:16.721Z,10.88
2022-09-10T15:06:44.144Z,9.05
2022-09-10T15:09:12.956Z,5.20
2022-09-10T15:12:03.440Z,11.82
2022-09-10T15:14:32.481Z,6.93
2022-09-10T15:16:59.669Z,12.57
2022-09-10T15:19:26.911Z,8.50
2022-09-10T15:21:54.616Z,5.47
2022-09-10T15:24:23.088Z,11.90
2022-09-10T15:26:50.674Z,9.30
2022-09-10T15:29:18.014Z,7.25
2022-09-10T15:31:45.101Z,9.68
2022-09-10T15:34:12.342Z,9.45
2022-09-10T15:36:40.837Z,6.40
2022-09-10T15:39:11.492Z,7.13
2022-09-10T15:41:43.599Z,12.43
2022-09-10T15:44:11.081Z,5.70
2022-09-10T15:46:42.136Z,5.80
2022-09-10T15:49:09.464Z,6.32
2022-09-10T15:51:36.380Z,8.32
2022-09-10T15:54:05.371Z,5.28
2022-09-10T15:56:33.069Z,6.72
2022-09-10T15:59:00.951Z,4.25
2022-09-10T16:01:28.940Z,7.18
2022-09-10T16:03:58.195Z,5.20
2022-09-10T16:06:30.716Z,6.45
2022-09-10T16:09:03.422Z,2.67
2022-09-10T16:11:32.864Z,3.03
2022-09-10T16:14:04.642Z,5.05
2022-09-10T16:16:32.728Z,6.72
2022-09-10T16:19:00.956Z,5.93
2022-09-10T16:21:31.172Z,7.43
2022-09-10T16:24:00.279Z,8.10
2022-09-10T16:26:34.539Z,2.58
2022-09-10T16:29:07.036Z,9.60
2022-09-10T16:34:06.020Z,8.07
2022-09-10T16:36:34.870Z,6.63
2022-09-10T16:39:02.248Z,6.70
2022-09-10T16:41:30.120Z,5.38
2022-09-10T16:43:59.369Z,6.60
2022-09-10T16:46:27.813Z,9.45
2022-09-10T16:48:56.060Z,6.13
2022-09-10T16:51:25.770Z,4.38
2022-09-10T16:53:56.994Z,6.53
2022-09-10T16:56:25.815Z,5.63
2022-09-10T16:58:53.673Z,7.30
2022-09-10T17:01:21.443Z,3.45
2022-09-10T17:03:49.928Z,5.13
2022-09-10T17:06:27.874Z,4.38
2022-09-10T17:08:57.707Z,4.97
2022-09-10T17:11:26.806Z,6.38
2022-09-10T17:13:57.023Z,7.65
2022-09-10T17:16:36.693Z,5.68
2022-09-10T17:19:09.727Z,5.32
2022-09-10T17:21:38.794Z,3.20
2022-09-10T17:24:08.226Z,2.60
2022-09-10T17:26:37.206Z,7.22
2022-09-10T17:29:10.024Z,6.03
2022-09-10T17:31:37.257Z,6.80
2022-09-10T17:34:04.764Z,7.28
2022-09-10T17:36:32.529Z,7.00
2022-09-10T17:39:00.142Z,8.65
2022-09-10T17:41:29.614Z,6.97
2022-09-10T17:43:59.605Z,8.35
2022-09-10T17:46:27.447Z,5.38
2022-09-10T17:48:55.308Z,5.95
2022-09-10T17:51:25.355Z,8.65
2022-09-10T17:53:55.336Z,7.43
2022-09-10T17:56:24.454Z,7.28
2022-09-10T17:58:59.347Z,10.80
2022-09-10T18:01:28.873Z,8.73
2022-09-10T18:03:56.573Z,7.78
2022-09-10T18:06:25.268Z,5.38
2022-09-10T18:08:52.775Z,9.48
2022-09-10T18:11:22.516Z,10.68
2022-09-10T18:13:52.099Z,7.68
2022-09-10T18:16:21.920Z,8.48
2022-09-10T18:18:55.604Z,9.65
2022-09-10T18:21:24.213Z,13.68
2022-09-10T18:23:56.309Z,8.32
2022-09-10T18:26:26.035Z,6.55
2022-09-10T18:29:01.935Z,7.22
2022-09-10T18:31:32.047Z,9.65
2022-09-10T18:34:00.435Z,7.47
2022-09-10T18:36:28.998Z,7.43
2022-09-10T18:38:55.966Z,13.55
2022-09-10T18:45:10.102Z,10.93
2022-09-10T18:47:44.509Z,6.13
2022-09-10T18:50:13.445Z,8.27
2022-09-10T18:52:41.652Z,7.88
2022-09-10T18:55:09.164Z,10.05
2022-09-10T18:57:36.771Z,7.38
2022-09-10T19:00:04.423Z,11.68
2022-09-10T19:02:31.407Z,8.35
2022-09-10T19:05:11.348Z,7.47
2022-09-10T19:07:39.154Z,9.20
2022-09-10T19:10:07.179Z,12.48
2022-09-10T19:12:34.543Z,8.98
2022-09-10T19:15:01.729Z,7.68
2022-09-10T19:17:28.701Z,11.82
2022-09-10T19:19:55.778Z,10.73
2022-09-10T19:22:22.719Z,10.40
2022-09-10T19:24:55.047Z,7.47
2022-09-10T19:27:23.309Z,11.55
2022-09-10T19:29:50.306Z,8.35
2022-09-10T19:32:19.909Z,11.07
2022-09-10T19:34:49.951Z,13.30
2022-09-10T19:37:17.289Z,9.55
2022-09-10T19:39:44.746Z,10.75
2022-09-10T19:42:12.666Z,12.38
2022-09-10T19:44:39.586Z,15.05
2022-09-10T19:47:06.630Z,11.68
2022-09-10T19:49:34.412Z,12.63
2022-09-10T19:52:01.652Z,8.05
2022-09-10T19:54:30.421Z,10.25
2022-09-10T19:56:57.486Z,12.45
2022-09-10T19:59:24.621Z,13.38
2022-09-10T20:01:51.751Z,8.68
2022-09-10T20:04:18.945Z,9.40
2022-09-10T20:06:47.658Z,10.15
2022-09-10T20:09:14.670Z,12.90
2022-09-10T20:11:41.833Z,9.73
2022-09-10T20:14:12.987Z,10.63
2022-09-10T20:16:42.933Z,11.38
2022-09-10T20:19:18.254Z,10.65
2022-09-10T20:21:48.050Z,10.02
2022-09-10T20:24:15.865Z,13.40
2022-09-10T20:26:43.951Z,11.95
2022-09-10T20:29:12.937Z,15.75
2022-09-10T20:31:41.524Z,14.30
2022-09-10T20:34:11.933Z,13.30
2022-09-10T20:36:42.293Z,14.73
2022-09-10T20:39:11.988Z,12.32
2022-09-10T20:41:39.946Z,13.02
2022-09-10T20:44:10.057Z,14.25
2022-09-10T20:46:38.153Z,10.82
2022-09-10T20:49:05.253Z,12.52
2022-09-10T20:51:35.647Z,10.45
2022-09-10T20:54:04.385Z,10.65
2022-09-10T20:56:31.635Z,10.98
2022-09-10T20:58:59.433Z,11.20
2022-09-10T21:01:28.498Z,10.30
2022-09-10T21:03:59.558Z,11.02
2022-09-10T21:06:29.195Z,9.00
2022-09-10T21:08:56.746Z,10.85
2022-09-10T21:11:25.908Z,13.48
2022-09-10T21:13:58.360Z,8.10
2022-09-10T21:16:31.368Z,8.98
2022-09-10T21:19:01.140Z,7.20
2022-09-10T21:21:30.423Z,9.38
2022-09-10T21:24:00.126Z,12.43
2022-09-10T21:26:29.491Z,11.07
2022-09-10T21:28:59.259Z,11.60
2022-09-10T21:31:27.406Z,14.13
2022-09-10T21:34:03.043Z,18.40
2022-09-10T21:36:31.951Z,17.85
2022-09-10T21:39:01.822Z,15.50
2022-09-10T21:41:35.521Z,21.73
2022-09-10T21:44:05.249Z,16.17
2022-09-10T21:46:34.136Z,14.93
2022-09-10T21:49:02.303Z,15.00
2022-09-10T21:51:29.578Z,16.67
2022-09-10T21:53:58.315Z,15.30
2022-09-10T21:56:27.694Z,12.23
2022-09-10T21:58:56.747Z,14.02
2022-09-10T22:01:26.529Z,21.77
2022-09-10T22:04:00.513Z,13.63
2022-09-10T22:06:30.492Z,12.77
2022-09-10T22:09:00.714Z,12.10
2022-09-10T22:11:31.732Z,13.35
2022-09-10T22:14:14.075Z,11.85
2022-09-10T22:19:11.785Z,13.13
2022-09-10T22:21:38.758Z,15.00
2022-09-10T22:24:07.141Z,12.63
2022-09-10T22:26:34.765Z,14.48
2022-09-10T22:29:03.274Z,15.57
2022-09-10T22:31:33.259Z,13.55
2022-09-10T22:34:13.476Z,17.95
2022-09-10T22:36:42.366Z,15.55
2022-09-10T22:39:13.505Z,14.27
2022-09-10T22:41:41.693Z,16.30
2022-09-10T22:44:09.726Z,14.38
2022-09-10T22:46:37.783Z,16.48
2022-09-10T22:49:06.361Z,16.92
2022-09-10T22:51:36.768Z,18.45
2022-09-10T22:54:05.082Z,15.80
2022-09-10T22:56:32.744Z,21.40
2022-09-10T22:59:00.412Z,22.55
2022-09-10T23:01:35.513Z,17.33
2022-09-10T23:04:04.087Z,21.50
2022-09-10T23:06:32.685Z,14.30
2022-09-10T23:09:07.263Z,16.15
2022-09-10T23:11:36.258Z,17.65
2022-09-10T23:14:06.892Z,13.60
2022-09-10T23:16:38.886Z,17.05
2022-09-10T23:19:12.974Z,13.48
2022-09-10T23:21:42.721Z,14.95
2022-09-10T23:24:13.383Z,19.33
2022-09-10T23:26:41.028Z,17.27
2022-09-10T23:29:08.218Z,18.88
2022-09-10T23:31:37.818Z,17.65
2022-09-10T23:34:07.891Z,14.40
2022-09-10T23:36:37.511Z,20.23
2022-09-10T23:39:21.854Z,17.73
2022-09-10T23:41:50.439Z,17.75
2022-09-10T23:44:17.690Z,19.90
2022-09-10T23:46:44.971Z,22.42
2022-09-10T23:49:12.668Z,13.30
2022-09-10T23:51:39.922Z,21.25
2022-09-10T23:54:07.305Z,17.60
2022-09-10T23:56:34.671Z,19.88
2022-09-10T23:59:03.606Z,17.13
